createdAt,value
2019-03-16T00:00:17.535Z,99.90
2019-03-16T00:02:46.572Z,99.90
2019-03-16T00:05:15.460Z,99.90
2019-03-16T00:07:44.211Z,99.90
2019-03-16T00:10:13.342Z,99.90
2019-03-16T00:12:42.144Z,99.90
2019-03-16T00:15:11.066Z,99.90
2019-03-16T00:17:40.388Z,99.90
2019-03-16T00:20:09.298Z,99.90
2019-03-16T00:22:38.019Z,99.90
2019-03-16T00:25:06.854Z,99.90
2019-03-16T00:27:35.767Z,99.90
2019-03-16T00:30:05.400Z,99.90
2019-03-16T00:32:34.315Z,99.90
2019-03-16T00:35:03.144Z,99.90
2019-03-16T00:37:31.941Z,99.90
2019-03-16T00:40:00.704Z,99.90
2019-03-16T00:42:29.446Z,99.90
2019-03-16T00:44:58.198Z,99.90
2019-03-16T00:47:27.372Z,99.90
2019-03-16T00:49:56.118Z,99.90
2019-03-16T00:52:24.871Z,99.90
2019-03-16T00:54:53.603Z,99.90
2019-03-16T00:57:22.341Z,99.90
2019-03-16T00:59:51.082Z,99.90
2019-03-16T01:02:27.010Z,99.90
2019-03-16T01:04:50.324Z,99.90
2019-03-16T01:07:19.071Z,99.90
2019-03-16T01:09:47.812Z,99.90
2019-03-16T01:12:16.540Z,99.90
2019-03-16T01:14:45.270Z,99.90
2019-03-16T01:17:14.007Z,99.90
2019-03-16T01:19:42.736Z,99.90
2019-03-16T01:22:11.476Z,99.90
2019-03-16T01:24:40.229Z,99.90
2019-03-16T01:27:08.959Z,99.90
2019-03-16T01:29:37.697Z,99.90
2019-03-16T01:32:06.506Z,99.90
2019-03-16T01:34:35.268Z,99.90
2019-03-16T01:37:04.012Z,99.90
2019-03-16T01:39:32.761Z,99.90
2019-03-16T01:42:01.518Z,99.90
2019-03-16T01:44:30.262Z,99.90
2019-03-16T01:46:59.368Z,99.90
2019-03-16T01:49:28.105Z,99.90
2019-03-16T01:51:56.864Z,99.90
2019-03-16T01:54:25.609Z,99.90
2019-03-16T01:56:54.350Z,99.90
2019-03-16T01:59:24.304Z,99.90
2019-03-16T02:01:53.057Z,99.90
2019-03-16T02:04:21.797Z,99.90
2019-03-16T02:06:50.532Z,99.90
2019-03-16T02:09:19.263Z,99.90
2019-03-16T02:11:47.994Z,99.90
2019-03-16T02:14:16.802Z,99.90
2019-03-16T02:16:45.544Z,99.90
2019-03-16T02:19:14.287Z,99.90
2019-03-16T02:21:43.417Z,99.90
2019-03-16T02:24:12.356Z,99.90
2019-03-16T02:26:41.104Z,99.90
2019-03-16T02:29:09.836Z,99.90
2019-03-16T02:31:38.594Z,99.90
2019-03-16T02:34:07.401Z,99.90
2019-03-16T02:36:36.169Z,99.90
2019-03-16T02:39:07.130Z,99.90
2019-03-16T02:41:35.880Z,99.90
2019-03-16T02:44:04.700Z,99.90
2019-03-16T02:46:33.441Z,99.90
2019-03-16T02:49:02.197Z,99.90
2019-03-16T02:51:30.927Z,99.90
2019-03-16T02:53:59.664Z,99.90
2019-03-16T02:56:28.404Z,99.90
2019-03-16T02:58:57.130Z,99.90
2019-03-16T03:01:25.868Z,99.90
2019-03-16T03:03:54.627Z,99.90
2019-03-16T03:06:23.358Z,99.90
2019-03-16T03:08:52.102Z,99.90
2019-03-16T03:11:21.455Z,99.90
2019-03-16T03:13:50.191Z,99.90
2019-03-16T03:16:19.059Z,99.90
2019-03-16T03:18:49.835Z,99.90
2019-03-16T03:21:18.294Z,99.90
2019-03-16T03:23:47.019Z,99.90
2019-03-16T03:26:15.761Z,99.90
2019-03-16T03:28:44.505Z,99.90
2019-03-16T03:31:13.236Z,99.90
2019-03-16T03:33:59.248Z,99.90
2019-03-16T03:36:13.787Z,99.90
2019-03-16T03:38:42.542Z,99.90
2019-03-16T03:41:11.281Z,99.90
2019-03-16T03:43:40.280Z,99.90
2019-03-16T03:46:09.014Z,99.90
2019-03-16T03:48:37.761Z,99.90
2019-03-16T03:51:06.562Z,99.90
2019-03-16T03:53:35.319Z,99.90
2019-03-16T03:56:04.205Z,99.90
2019-03-16T03:58:33.113Z,99.90
2019-03-16T04:01:03.445Z,99.90
2019-03-16T04:03:32.259Z,99.90
2019-03-16T04:06:01.092Z,99.90
2019-03-16T04:08:29.909Z,99.90
2019-03-16T04:10:58.640Z,99.90
2019-03-16T04:13:27.358Z,99.90
2019-03-16T04:15:56.120Z,99.90
2019-03-16T04:18:24.857Z,99.90
2019-03-16T04:20:53.612Z,99.90
2019-03-16T04:23:23.187Z,99.90
2019-03-16T04:25:52.080Z,99.90
2019-03-16T04:28:20.820Z,99.90
2019-03-16T04:30:49.559Z,99.90
2019-03-16T04:33:18.291Z,99.90
2019-03-16T04:35:47.040Z,99.90
2019-03-16T04:38:15.769Z,99.90
2019-03-16T04:40:44.837Z,99.90
2019-03-16T04:43:13.842Z,99.90
2019-03-16T04:45:42.658Z,99.90
2019-03-16T04:48:11.596Z,99.90
2019-03-16T04:50:40.341Z,99.90
2019-03-16T04:53:09.072Z,99.90
2019-03-16T04:55:37.820Z,99.90
2019-03-16T04:58:06.547Z,99.90
2019-03-16T05:00:35.296Z,99.90
2019-03-16T05:03:04.111Z,99.90
2019-03-16T05:05:32.853Z,99.90
2019-03-16T05:08:01.584Z,99.90
2019-03-16T05:10:30.327Z,99.90
2019-03-16T05:12:59.164Z,99.90
2019-03-16T05:15:27.893Z,99.90
2019-03-16T05:17:56.647Z,99.90
2019-03-16T05:20:25.385Z,99.90
2019-03-16T05:22:54.116Z,99.90
2019-03-16T05:25:22.887Z,99.90
2019-03-16T05:27:51.660Z,99.90
2019-03-16T05:30:20.396Z,99.90
2019-03-16T05:32:49.130Z,99.90
2019-03-16T05:35:18.186Z,99.90
2019-03-16T05:37:46.933Z,99.90
2019-03-16T05:40:15.685Z,99.90
2019-03-16T05:42:44.403Z,99.90
2019-03-16T05:45:13.285Z,99.90
2019-03-16T05:47:42.018Z,99.90
2019-03-16T05:50:11.135Z,99.90
2019-03-16T05:52:39.862Z,99.90
2019-03-16T05:55:08.852Z,99.90
2019-03-16T05:57:37.664Z,99.90
2019-03-16T06:00:09.772Z,99.90
2019-03-16T06:02:38.451Z,99.90
2019-03-16T06:05:10.833Z,99.90
2019-03-16T06:07:38.847Z,99.90
2019-03-16T06:10:07.892Z,99.90
2019-03-16T06:12:36.638Z,99.90
2019-03-16T06:15:05.793Z,99.90
2019-03-16T06:17:34.541Z,99.90
2019-03-16T06:20:03.491Z,99.90
2019-03-16T06:22:32.222Z,99.90
2019-03-16T06:25:00.973Z,99.90
2019-03-16T06:27:29.714Z,99.90
2019-03-16T06:29:58.452Z,99.90
2019-03-16T06:32:27.264Z,99.90
2019-03-16T06:34:57.401Z,99.90
2019-03-16T06:37:26.106Z,99.90
2019-03-16T06:39:54.842Z,99.90
2019-03-16T06:42:23.577Z,99.90
2019-03-16T06:44:52.308Z,99.90
2019-03-16T06:47:23.151Z,99.90
2019-03-16T06:49:51.528Z,99.90
2019-03-16T06:52:20.397Z,99.90
2019-03-16T06:54:49.214Z,99.90
2019-03-16T06:57:17.995Z,99.90
2019-03-16T06:59:46.746Z,99.90
2019-03-16T07:02:15.556Z,99.90
2019-03-16T07:04:44.301Z,99.90
2019-03-16T07:07:13.046Z,99.90
2019-03-16T07:09:41.820Z,99.90
2019-03-16T07:12:10.553Z,99.90
2019-03-16T07:14:39.309Z,99.90
2019-03-16T07:17:08.087Z,99.90
2019-03-16T07:19:36.855Z,99.90
2019-03-16T07:22:05.670Z,99.90
2019-03-16T07:24:34.447Z,99.90
2019-03-16T07:27:03.185Z,99.90
2019-03-16T07:29:31.923Z,99.90
2019-03-16T07:32:00.746Z,99.90
2019-03-16T07:34:29.492Z,99.90
2019-03-16T07:36:58.236Z,99.90
2019-03-16T07:39:26.973Z,99.90
2019-03-16T07:41:55.802Z,99.90
2019-03-16T07:44:24.692Z,99.90
2019-03-16T07:46:53.508Z,99.90
2019-03-16T07:49:22.293Z,99.90
2019-03-16T07:51:51.072Z,99.90
2019-03-16T07:54:19.825Z,99.90
2019-03-16T07:56:48.582Z,99.90
2019-03-16T07:59:17.710Z,99.90
2019-03-16T08:01:47.082Z,99.90
2019-03-16T08:04:16.021Z,99.90
2019-03-16T08:06:45.134Z,99.90
2019-03-16T08:09:14.810Z,99.90
2019-03-16T08:11:43.888Z,99.90
2019-03-16T08:14:12.935Z,99.90
2019-03-16T08:16:42.036Z,99.90
2019-03-16T08:19:10.952Z,99.90
2019-03-16T08:21:40.049Z,99.90
2019-03-16T08:24:08.962Z,99.90
2019-03-16T08:26:38.210Z,99.90
2019-03-16T08:29:11.266Z,99.90
2019-03-16T08:31:43.343Z,99.90
2019-03-16T08:34:15.586Z,99.90
2019-03-16T08:36:51.004Z,99.90
2019-03-16T08:39:26.127Z,99.90
2019-03-16T08:41:58.597Z,99.90
2019-03-16T08:44:33.056Z,99.90
2019-03-16T08:47:03.060Z,99.90
2019-03-16T08:49:35.261Z,99.90
2019-03-16T08:52:06.751Z,99.90
2019-03-16T08:54:42.814Z,99.90
2019-03-16T08:57:20.390Z,99.90
2019-03-16T08:59:55.222Z,99.90
2019-03-16T09:02:26.814Z,99.90
2019-03-16T09:05:01.401Z,99.90
2019-03-16T09:07:34.248Z,99.90
2019-03-16T09:10:07.224Z,99.90
2019-03-16T09:12:38.725Z,99.90
2019-03-16T09:15:10.135Z,99.90
2019-03-16T09:17:42.771Z,99.90
2019-03-16T09:20:13.038Z,99.90
2019-03-16T09:22:46.152Z,99.90
2019-03-16T09:25:20.766Z,99.90
2019-03-16T09:27:53.121Z,99.90
2019-03-16T09:30:22.456Z,99.90
2019-03-16T09:32:56.243Z,99.90
2019-03-16T09:35:26.170Z,99.90
2019-03-16T09:38:01.308Z,99.90
2019-03-16T09:40:31.205Z,99.90
2019-03-16T09:42:59.928Z,99.90
2019-03-16T09:45:29.790Z,99.90
2019-03-16T09:47:58.713Z,99.90
2019-03-16T09:50:27.505Z,99.90
2019-03-16T09:52:56.513Z,99.90
2019-03-16T09:55:25.305Z,99.90
2019-03-16T09:57:54.052Z,99.90
2019-03-16T10:00:22.888Z,99.90
2019-03-16T10:02:51.714Z,99.90
2019-03-16T10:05:21.805Z,99.90
2019-03-16T10:07:51.240Z,99.90
2019-03-16T10:10:19.954Z,99.90
2019-03-16T10:12:51.908Z,99.90
2019-03-16T10:15:20.715Z,99.90
2019-03-16T10:17:49.640Z,99.90
2019-03-16T10:20:18.482Z,99.90
2019-03-16T10:22:47.216Z,99.90
2019-03-16T10:25:16.028Z,99.90
2019-03-16T10:27:44.838Z,99.90
2019-03-16T10:30:13.702Z,99.90
2019-03-16T10:32:42.712Z,99.90
2019-03-16T10:35:12.463Z,99.90
2019-03-16T10:37:41.567Z,99.90
2019-03-16T10:40:10.390Z,99.90
2019-03-16T10:42:39.132Z,99.90
2019-03-16T10:45:08.058Z,99.90
2019-03-16T10:47:36.774Z,99.90
2019-03-16T10:50:06.638Z,99.90
2019-03-16T10:52:35.385Z,99.90
2019-03-16T10:55:05.231Z,99.90
2019-03-16T10:57:33.979Z,99.90
2019-03-16T11:00:02.795Z,99.90
2019-03-16T11:02:31.608Z,99.90
2019-03-16T11:05:00.397Z,99.90
2019-03-16T11:07:29.177Z,99.90
2019-03-16T11:22:14.921Z,99.20
2019-03-16T11:24:43.646Z,96.60
2019-03-16T11:27:12.383Z,96.70
2019-03-16T11:29:44.480Z,96.70
2019-03-16T11:32:13.377Z,96.70
2019-03-16T11:34:42.585Z,97.40
2019-03-16T11:37:11.382Z,97.70
2019-03-16T11:39:41.327Z,98.70
2019-03-16T11:42:10.953Z,98.90
2019-03-16T11:44:40.084Z,98.90
2019-03-16T11:47:11.286Z,99.40
2019-03-16T11:49:42.104Z,99.00
2019-03-16T11:52:11.380Z,97.60
2019-03-16T11:54:40.207Z,98.90
2019-03-16T11:57:08.989Z,99.60
2019-03-16T11:59:37.742Z,98.00
2019-03-16T12:02:06.562Z,98.50
2019-03-16T12:04:35.355Z,98.10
2019-03-16T12:07:04.244Z,98.00
2019-03-16T12:09:32.998Z,98.10
2019-03-16T12:12:01.759Z,98.00
2019-03-16T12:14:31.166Z,97.10
2019-03-16T12:16:59.926Z,97.20
2019-03-16T12:19:28.702Z,96.60
2019-03-16T12:21:57.459Z,96.50
2019-03-16T12:24:26.209Z,96.30
2019-03-16T12:26:55.073Z,96.70
2019-03-16T12:29:33.543Z,96.00
2019-03-16T12:31:54.294Z,95.60
2019-03-16T12:34:23.039Z,96.00
2019-03-16T12:36:51.786Z,96.10
2019-03-16T12:39:20.515Z,95.70
2019-03-16T12:41:49.268Z,95.80
2019-03-16T12:44:18.471Z,96.00
2019-03-16T12:46:47.238Z,96.00
2019-03-16T12:49:16.083Z,96.60
2019-03-16T12:51:44.815Z,96.80
2019-03-16T12:54:13.635Z,97.20
2019-03-16T12:56:42.374Z,97.00
2019-03-16T12:59:11.210Z,98.00
2019-03-16T13:01:40.007Z,98.80
2019-03-16T13:04:10.245Z,99.20
2019-03-16T13:06:39.069Z,99.90
2019-03-16T13:09:09.840Z,99.90
2019-03-16T13:11:38.662Z,99.70
2019-03-16T13:14:07.582Z,99.90
2019-03-16T13:16:37.423Z,99.90
2019-03-16T13:19:06.354Z,99.70
2019-03-16T13:21:35.149Z,99.20
2019-03-16T13:24:03.981Z,98.20
2019-03-16T13:26:32.808Z,98.30
2019-03-16T13:29:01.544Z,97.90
2019-03-16T13:31:30.380Z,98.00
2019-03-16T13:34:01.861Z,96.50
2019-03-16T13:36:31.762Z,96.90
2019-03-16T13:39:01.473Z,97.00
2019-03-16T13:41:31.244Z,96.70
2019-03-16T13:44:01.465Z,97.10
2019-03-16T13:46:31.355Z,97.20
2019-03-16T13:49:01.134Z,97.10
2019-03-16T13:51:29.909Z,97.40
2019-03-16T13:53:58.720Z,97.80
2019-03-16T13:56:27.452Z,98.00
2019-03-16T13:58:56.759Z,97.90
2019-03-16T14:01:25.662Z,98.00
2019-03-16T14:03:55.258Z,97.70
2019-03-16T14:06:24.012Z,97.40
2019-03-16T14:08:53.178Z,97.30
2019-03-16T14:11:21.983Z,97.30
2019-03-16T14:13:51.417Z,97.20
2019-03-16T14:16:20.444Z,97.00
2019-03-16T14:18:49.370Z,96.60
2019-03-16T14:21:18.167Z,96.80
2019-03-16T14:23:46.921Z,96.60
2019-03-16T14:26:16.136Z,96.70
2019-03-16T14:28:45.020Z,96.20
2019-03-16T14:31:13.772Z,96.70
2019-03-16T14:33:42.608Z,96.70
2019-03-16T14:36:11.493Z,96.60
2019-03-16T14:38:40.655Z,96.80
2019-03-16T14:41:09.484Z,96.30
2019-03-16T14:43:38.232Z,96.30
2019-03-16T14:46:07.032Z,95.90
2019-03-16T14:48:35.828Z,96.10
2019-03-16T14:51:04.766Z,95.80
2019-03-16T14:53:33.879Z,95.90
2019-03-16T14:56:02.653Z,95.60
2019-03-16T14:58:31.494Z,95.30
2019-03-16T15:01:00.249Z,95.60
2019-03-16T15:03:28.989Z,95.40
2019-03-16T15:05:57.926Z,95.70
2019-03-16T15:08:26.724Z,95.10
2019-03-16T15:10:55.489Z,95.60
2019-03-16T15:13:26.794Z,96.10
2019-03-16T15:15:55.244Z,95.90
2019-03-16T15:18:23.970Z,95.80
2019-03-16T15:20:52.737Z,95.90
2019-03-16T15:23:21.754Z,96.10
2019-03-16T15:25:50.572Z,95.50
2019-03-16T15:28:19.319Z,95.60
2019-03-16T15:30:50.857Z,95.60
2019-03-16T15:33:18.665Z,95.50
2019-03-16T15:35:47.449Z,94.60
2019-03-16T15:38:16.284Z,94.70
2019-03-16T15:40:45.093Z,94.90
2019-03-16T15:43:15.342Z,94.80
2019-03-16T15:45:44.070Z,95.10
2019-03-16T15:48:12.819Z,95.20
2019-03-16T15:50:41.546Z,95.30
2019-03-16T15:53:10.275Z,95.00
2019-03-16T15:55:39.009Z,95.00
2019-03-16T15:58:08.746Z,95.40
2019-03-16T16:00:38.043Z,95.70
2019-03-16T16:03:09.129Z,96.10
2019-03-16T16:05:37.343Z,95.40
2019-03-16T16:08:06.203Z,95.30
2019-03-16T16:10:34.963Z,94.40
2019-03-16T16:13:03.785Z,94.90
2019-03-16T16:15:32.550Z,94.30
2019-03-16T16:18:04.459Z,94.70
2019-03-16T16:20:33.224Z,94.10
2019-03-16T16:23:02.036Z,94.00
2019-03-16T16:25:30.812Z,93.20
2019-03-16T16:27:59.546Z,93.50
2019-03-16T16:30:28.368Z,93.60
2019-03-16T16:32:57.267Z,93.50
2019-03-16T16:35:26.919Z,93.20
2019-03-16T16:37:55.704Z,93.10
2019-03-16T16:40:24.462Z,93.40
2019-03-16T16:42:53.284Z,93.30
2019-03-16T16:45:22.030Z,93.70
2019-03-16T16:47:50.859Z,93.70
2019-03-16T16:50:19.650Z,93.60
2019-03-16T16:52:48.532Z,94.10
2019-03-16T16:55:17.355Z,94.00
2019-03-16T16:57:46.276Z,94.00
2019-03-16T17:00:16.164Z,94.00
2019-03-16T17:02:45.036Z,93.40
2019-03-16T17:05:14.318Z,93.90
2019-03-16T17:07:43.070Z,93.90
2019-03-16T17:10:13.319Z,93.80
2019-03-16T17:12:42.195Z,93.80
2019-03-16T17:15:12.248Z,93.90
2019-03-16T17:17:41.588Z,94.20
2019-03-16T17:20:11.144Z,94.40
2019-03-16T17:22:39.883Z,94.50
2019-03-16T17:25:08.860Z,94.50
2019-03-16T17:27:39.250Z,94.50
2019-03-16T17:30:13.234Z,93.90
2019-03-16T17:32:41.757Z,94.40
2019-03-16T17:35:10.744Z,94.10
2019-03-16T17:37:40.045Z,93.90
2019-03-16T17:40:09.438Z,93.90
2019-03-16T17:42:38.183Z,94.00
2019-03-16T17:45:07.464Z,94.30
2019-03-16T17:47:36.208Z,94.40
2019-03-16T17:50:05.620Z,94.40
2019-03-16T17:52:34.432Z,94.40
2019-03-16T17:55:03.244Z,94.40
2019-03-16T17:57:31.974Z,94.40
2019-03-16T18:00:00.716Z,94.50
2019-03-16T18:02:30.560Z,94.60
2019-03-16T18:04:59.546Z,94.90
2019-03-16T18:07:28.574Z,94.90
2019-03-16T18:10:00.029Z,95.30
2019-03-16T18:12:30.421Z,95.20
2019-03-16T18:14:59.157Z,95.10
2019-03-16T18:17:27.907Z,95.10
2019-03-16T18:19:58.253Z,95.20
2019-03-16T18:22:29.174Z,95.50
2019-03-16T18:25:00.168Z,95.50
2019-03-16T18:27:33.322Z,95.70
2019-03-16T18:30:03.934Z,95.80
2019-03-16T18:32:33.347Z,95.30
2019-03-16T18:35:02.079Z,95.60
2019-03-16T18:37:35.640Z,95.70
2019-03-16T18:40:05.581Z,95.90
2019-03-16T18:42:37.642Z,96.00
2019-03-16T18:45:12.445Z,96.30
2019-03-16T18:47:43.779Z,96.20
2019-03-16T18:50:12.739Z,96.30
2019-03-16T18:52:41.651Z,96.30
2019-03-16T18:55:11.210Z,96.60
2019-03-16T18:57:40.602Z,97.00
2019-03-16T19:00:10.726Z,97.00
2019-03-16T19:02:39.548Z,97.20
2019-03-16T19:05:08.818Z,97.40
2019-03-16T19:07:40.802Z,97.30
2019-03-16T19:10:10.593Z,97.10
2019-03-16T19:12:39.628Z,96.70
2019-03-16T19:15:10.724Z,96.80
2019-03-16T19:17:40.317Z,96.80
2019-03-16T19:20:10.809Z,97.00
2019-03-16T19:22:39.747Z,96.90
2019-03-16T19:25:10.315Z,97.10
2019-03-16T19:27:39.505Z,97.30
2019-03-16T19:30:10.262Z,97.30
2019-03-16T19:32:39.047Z,97.10
2019-03-16T19:35:07.894Z,97.00
2019-03-16T19:37:36.628Z,97.20
2019-03-16T19:40:06.512Z,97.10
2019-03-16T19:42:35.255Z,97.20
2019-03-16T19:45:04.517Z,97.40
2019-03-16T19:47:33.333Z,97.50
2019-03-16T19:50:02.074Z,97.70
2019-03-16T19:52:30.805Z,97.80
2019-03-16T19:54:59.571Z,98.20
2019-03-16T19:57:28.399Z,98.90
2019-03-16T19:59:57.145Z,99.10
2019-03-16T20:02:25.955Z,99.30
2019-03-16T20:04:54.693Z,99.60
2019-03-16T20:07:23.542Z,99.80
2019-03-16T20:09:52.271Z,99.90
2019-03-16T20:12:21.144Z,99.90
2019-03-16T20:14:51.341Z,99.90
2019-03-16T20:17:20.089Z,99.90
2019-03-16T20:19:48.839Z,99.90
2019-03-16T20:22:17.643Z,99.90
2019-03-16T20:24:46.381Z,99.90
2019-03-16T20:27:15.130Z,99.90
2019-03-16T20:29:43.946Z,99.90
2019-03-16T20:32:12.692Z,99.90
2019-03-16T20:34:41.422Z,99.90
2019-03-16T20:37:10.340Z,99.90
2019-03-16T20:39:39.068Z,99.90
2019-03-16T20:42:07.817Z,99.90
2019-03-16T20:44:36.562Z,99.90
2019-03-16T20:47:05.321Z,99.90
2019-03-16T20:49:34.225Z,99.90
2019-03-16T20:52:03.039Z,99.90
2019-03-16T20:54:31.770Z,99.90
2019-03-16T20:57:00.528Z,99.90
2019-03-16T20:59:29.267Z,99.90
2019-03-16T21:01:58.032Z,99.90
2019-03-16T21:04:26.776Z,99.90
2019-03-16T21:06:55.531Z,99.90
2019-03-16T21:09:24.432Z,99.90
2019-03-16T21:11:53.316Z,99.90
2019-03-16T21:14:22.064Z,99.90
2019-03-16T21:16:50.873Z,99.90
2019-03-16T21:19:19.607Z,99.90
2019-03-16T21:21:48.382Z,99.90
2019-03-16T21:24:17.188Z,99.90
2019-03-16T21:26:52.322Z,99.90
2019-03-16T21:29:16.795Z,99.90
2019-03-16T21:31:45.802Z,99.90
2019-03-16T21:34:14.644Z,99.90
2019-03-16T21:36:43.546Z,99.90
2019-03-16T21:39:12.495Z,99.90
2019-03-16T21:41:44.235Z,99.90
2019-03-16T21:44:12.340Z,99.90
2019-03-16T21:46:43.740Z,99.90
2019-03-16T21:49:11.771Z,99.90
2019-03-16T21:51:40.756Z,99.90
2019-03-16T21:54:10.607Z,99.90
2019-03-16T21:56:39.585Z,99.90
2019-03-16T21:59:10.425Z,99.90
2019-03-16T22:01:39.524Z,99.90
2019-03-16T22:04:08.475Z,99.90
2019-03-16T22:06:37.407Z,99.90
2019-03-16T22:09:07.287Z,99.90
2019-03-16T22:11:36.511Z,99.90
2019-03-16T22:14:05.951Z,99.90
2019-03-16T22:16:34.851Z,99.90
2019-03-16T22:19:03.659Z,99.90
2019-03-16T22:21:33.332Z,99.90
2019-03-16T22:24:02.219Z,99.90
2019-03-16T22:26:31.500Z,99.90
2019-03-16T22:29:00.388Z,99.90
2019-03-16T22:31:29.259Z,99.90
2019-03-16T22:33:58.227Z,99.90
2019-03-16T22:36:27.257Z,99.90
2019-03-16T22:38:56.388Z,99.90
2019-03-16T22:41:25.451Z,99.90
2019-03-16T22:43:57.336Z,99.90
2019-03-16T22:46:26.387Z,99.90
2019-03-16T22:48:55.187Z,99.90
2019-03-16T22:51:24.014Z,99.90
2019-03-16T22:53:52.889Z,99.90
2019-03-16T22:56:21.847Z,99.90
2019-03-16T22:58:50.698Z,99.90
2019-03-16T23:01:19.938Z,99.90
2019-03-16T23:03:48.952Z,99.90
2019-03-16T23:06:17.938Z,99.90
2019-03-16T23:08:47.111Z,99.90
2019-03-16T23:11:16.007Z,99.90
2019-03-16T23:13:45.046Z,99.90
2019-03-16T23:16:13.942Z,99.90
2019-03-16T23:18:43.798Z,99.90
2019-03-16T23:21:13.775Z,99.90
2019-03-16T23:23:42.788Z,99.90
2019-03-16T23:26:11.705Z,99.90
2019-03-16T23:28:40.446Z,99.90
2019-03-16T23:31:09.185Z,99.90
2019-03-16T23:33:37.916Z,99.90
2019-03-16T23:36:06.636Z,99.90
2019-03-16T23:38:36.294Z,99.90
2019-03-16T23:41:05.102Z,99.90
2019-03-16T23:43:35.393Z,99.90
2019-03-16T23:46:04.159Z,99.90
2019-03-16T23:48:33.044Z,99.90
2019-03-16T23:51:01.869Z,99.90
2019-03-16T23:53:30.628Z,99.90
2019-03-16T23:55:59.539Z,99.90
2019-03-16T23:58:28.521Z,99.90
